sensor_id;sensor_type;location;lat;lon;timestamp;pressure;altitude;pressure_sealevel;temperature;humidity
36222;BME280;22266;52.340;4.962;2024-02-26T00:00:25;100019.09;;;6.04;98.09
36222;BME280;22266;52.340;4.962;2024-02-26T00:02:52;100023.78;;;6.02;98.14
36222;BME280;22266;52.340;4.962;2024-02-26T00:05:19;100015.13;;;6.00;98.18
36222;BME280;22266;52.340;4.962;2024-02-26T00:07:45;100019.09;;;6.04;97.83
36222;BME280;22266;52.340;4.962;2024-02-26T00:10:13;100019.72;;;6.06;97.94
36222;BME280;22266;52.340;4.962;2024-02-26T00:12:40;100016.69;;;6.09;98.00
36222;BME280;22266;52.340;4.962;2024-02-26T00:15:08;100024.59;;;6.17;97.83
36222;BME280;22266;52.340;4.962;2024-02-26T00:17:35;100020.28;;;6.16;97.78
36222;BME280;22266;52.340;4.962;2024-02-26T00:20:05;100016.59;;;6.17;97.46
36222;BME280;22266;52.340;4.962;2024-02-26T00:22:35;100027.06;;;6.18;98.24
36222;BME280;22266;52.340;4.962;2024-02-26T00:25:02;100029.47;;;6.13;97.63
36222;BME280;22266;52.340;4.962;2024-02-26T00:27:28;100023.31;;;6.13;98.43
36222;BME280;22266;52.340;4.962;2024-02-26T00:29:55;100032.16;;;6.13;98.23
36222;BME280;22266;52.340;4.962;2024-02-26T00:32:22;100032.34;;;6.12;98.39
36222;BME280;22266;52.340;4.962;2024-02-26T00:34:48;100039.63;;;6.18;98.62
36222;BME280;22266;52.340;4.962;2024-02-26T00:37:15;100035.84;;;6.12;98.26
36222;BME280;22266;52.340;4.962;2024-02-26T00:39:41;100036.22;;;6.09;98.51
36222;BME280;22266;52.340;4.962;2024-02-26T00:42:08;100036.56;;;6.06;98.66
36222;BME280;22266;52.340;4.962;2024-02-26T00:44:35;100031.16;;;6.00;99.43
36222;BME280;22266;52.340;4.962;2024-02-26T00:47:02;100037.97;;;6.02;99.72
36222;BME280;22266;52.340;4.962;2024-02-26T00:49:28;100040.28;;;6.05;98.79
36222;BME280;22266;52.340;4.962;2024-02-26T00:51:55;100042.13;;;6.05;98.66
36222;BME280;22266;52.340;4.962;2024-02-26T00:54:22;100041.53;;;5.94;98.92
36222;BME280;22266;52.340;4.962;2024-02-26T00:56:49;100045.72;;;5.97;99.02
36222;BME280;22266;52.340;4.962;2024-02-26T00:59:16;100042.00;;;5.98;99.23
36222;BME280;22266;52.340;4.962;2024-02-26T01:01:42;100047.34;;;5.98;98.76
36222;BME280;22266;52.340;4.962;2024-02-26T01:04:09;100038.16;;;6.01;98.94
36222;BME280;22266;52.340;4.962;2024-02-26T01:06:36;100040.91;;;5.92;99.15
36222;BME280;22266;52.340;4.962;2024-02-26T01:09:03;100040.78;;;5.86;99.30
36222;BME280;22266;52.340;4.962;2024-02-26T01:11:30;100045.50;;;5.84;99.03
36222;BME280;22266;52.340;4.962;2024-02-26T01:13:56;100047.69;;;5.80;99.49
36222;BME280;22266;52.340;4.962;2024-02-26T01:16:23;100044.78;;;5.67;98.97
36222;BME280;22266;52.340;4.962;2024-02-26T01:18:50;100048.59;;;5.73;98.61
36222;BME280;22266;52.340;4.962;2024-02-26T01:21:17;100045.66;;;5.67;98.83
36222;BME280;22266;52.340;4.962;2024-02-26T01:23:44;100040.41;;;5.74;99.05
36222;BME280;22266;52.340;4.962;2024-02-26T01:26:10;100050.25;;;5.74;98.53
36222;BME280;22266;52.340;4.962;2024-02-26T01:28:37;100044.44;;;5.70;97.86
36222;BME280;22266;52.340;4.962;2024-02-26T01:31:04;100053.13;;;5.72;98.15
36222;BME280;22266;52.340;4.962;2024-02-26T01:33:33;100057.72;;;5.78;98.16
36222;BME280;22266;52.340;4.962;2024-02-26T01:36:00;100058.25;;;5.74;97.75
36222;BME280;22266;52.340;4.962;2024-02-26T01:38:27;100063.41;;;5.75;97.58
36222;BME280;22266;52.340;4.962;2024-02-26T01:40:54;100059.84;;;5.83;97.83
36222;BME280;22266;52.340;4.962;2024-02-26T01:43:21;100060.56;;;5.77;97.75
36222;BME280;22266;52.340;4.962;2024-02-26T01:45:47;100063.59;;;5.74;97.59
36222;BME280;22266;52.340;4.962;2024-02-26T01:48:14;100058.81;;;5.69;97.74
36222;BME280;22266;52.340;4.962;2024-02-26T01:50:41;100056.56;;;5.58;97.95
36222;BME280;22266;52.340;4.962;2024-02-26T01:53:09;100061.56;;;5.61;97.47
36222;BME280;22266;52.340;4.962;2024-02-26T01:55:36;100055.88;;;5.64;96.91
36222;BME280;22266;52.340;4.962;2024-02-26T01:58:06;100052.44;;;5.55;97.72
36222;BME280;22266;52.340;4.962;2024-02-26T02:00:33;100045.53;;;5.61;97.65
36222;BME280;22266;52.340;4.962;2024-02-26T02:03:01;100054.19;;;5.63;97.01
36222;BME280;22266;52.340;4.962;2024-02-26T02:05:30;100051.25;;;5.58;97.68
36222;BME280;22266;52.340;4.962;2024-02-26T02:07:57;100046.56;;;5.60;97.61
36222;BME280;22266;52.340;4.962;2024-02-26T02:10:25;100058.34;;;5.65;98.00
36222;BME280;22266;52.340;4.962;2024-02-26T02:12:52;100066.16;;;5.67;97.12
36222;BME280;22266;52.340;4.962;2024-02-26T02:15:19;100069.41;;;5.77;97.31
36222;BME280;22266;52.340;4.962;2024-02-26T02:17:47;100070.59;;;5.75;97.59
36222;BME280;22266;52.340;4.962;2024-02-26T02:20:17;100068.56;;;5.62;97.23
36222;BME280;22266;52.340;4.962;2024-02-26T02:22:45;100067.84;;;5.68;96.94
36222;BME280;22266;52.340;4.962;2024-02-26T02:25:12;100086.81;;;5.73;97.90
36222;BME280;22266;52.340;4.962;2024-02-26T02:27:40;100082.84;;;5.69;97.03
36222;BME280;22266;52.340;4.962;2024-02-26T02:30:07;100085.78;;;5.74;97.89
36222;BME280;22266;52.340;4.962;2024-02-26T02:32:37;100094.47;;;5.76;97.65
36222;BME280;22266;52.340;4.962;2024-02-26T02:35:06;100097.06;;;5.84;96.97
36222;BME280;22266;52.340;4.962;2024-02-26T02:37:33;100094.75;;;5.81;96.87
36222;BME280;22266;52.340;4.962;2024-02-26T02:40:00;100086.47;;;5.76;97.48
36222;BME280;22266;52.340;4.962;2024-02-26T02:42:26;100095.84;;;5.72;96.92
36222;BME280;22266;52.340;4.962;2024-02-26T02:44:53;100094.91;;;5.65;97.26
36222;BME280;22266;52.340;4.962;2024-02-26T02:47:20;100090.19;;;5.67;98.19
36222;BME280;22266;52.340;4.962;2024-02-26T02:49:46;100081.75;;;5.63;98.49
36222;BME280;22266;52.340;4.962;2024-02-26T02:52:13;100097.75;;;5.63;97.67
36222;BME280;22266;52.340;4.962;2024-02-26T02:54:39;100091.94;;;5.60;98.39
36222;BME280;22266;52.340;4.962;2024-02-26T02:57:07;100097.75;;;5.63;98.45
36222;BME280;22266;52.340;4.962;2024-02-26T02:59:34;100091.03;;;5.67;98.56
36222;BME280;22266;52.340;4.962;2024-02-26T03:02:00;100099.63;;;5.55;98.39
36222;BME280;22266;52.340;4.962;2024-02-26T03:04:27;100107.91;;;5.45;98.96
36222;BME280;22266;52.340;4.962;2024-02-26T03:06:53;100110.50;;;5.53;99.64
36222;BME280;22266;52.340;4.962;2024-02-26T03:09:20;100112.81;;;5.56;98.44
36222;BME280;22266;52.340;4.962;2024-02-26T03:11:47;100125.41;;;5.48;98.83
36222;BME280;22266;52.340;4.962;2024-02-26T03:14:14;100121.25;;;5.45;99.15
36222;BME280;22266;52.340;4.962;2024-02-26T03:16:40;100111.41;;;5.45;99.04
36222;BME280;22266;52.340;4.962;2024-02-26T03:19:08;100119.06;;;5.49;98.88
36222;BME280;22266;52.340;4.962;2024-02-26T03:21:34;100121.25;;;5.45;99.41
36222;BME280;22266;52.340;4.962;2024-02-26T03:24:01;100116.19;;;5.50;99.29
36222;BME280;22266;52.340;4.962;2024-02-26T03:26:27;100137.25;;;5.45;98.57
36222;BME280;22266;52.340;4.962;2024-02-26T03:28:54;100131.38;;;5.50;98.98
36222;BME280;22266;52.340;4.962;2024-02-26T03:31:21;100140.41;;;5.49;98.28
36222;BME280;22266;52.340;4.962;2024-02-26T03:33:48;100142.47;;;5.38;98.66
36222;BME280;22266;52.340;4.962;2024-02-26T03:36:14;100140.28;;;5.42;98.73
36222;BME280;22266;52.340;4.962;2024-02-26T03:38:42;100143.84;;;5.34;98.85
36222;BME280;22266;52.340;4.962;2024-02-26T03:41:09;100140.72;;;5.31;98.83
36222;BME280;22266;52.340;4.962;2024-02-26T03:43:35;100146.63;;;5.41;98.96
36222;BME280;22266;52.340;4.962;2024-02-26T03:46:02;100155.72;;;5.32;98.60
36222;BME280;22266;52.340;4.962;2024-02-26T03:48:29;100145.94;;;5.24;98.63
36222;BME280;22266;52.340;4.962;2024-02-26T03:50:55;100164.25;;;5.27;98.76
36222;BME280;22266;52.340;4.962;2024-02-26T03:53:22;100161.69;;;5.34;99.33
36222;BME280;22266;52.340;4.962;2024-02-26T03:55:49;100159.78;;;5.42;99.00
36222;BME280;22266;52.340;4.962;2024-02-26T03:58:18;100169.84;;;5.40;98.13
36222;BME280;22266;52.340;4.962;2024-02-26T04:00:44;100164.16;;;5.43;98.69
36222;BME280;22266;52.340;4.962;2024-02-26T04:03:13;100175.16;;;5.40;97.50
36222;BME280;22266;52.340;4.962;2024-02-26T04:05:40;100182.50;;;5.38;98.13
36222;BME280;22266;52.340;4.962;2024-02-26T04:08:07;100197.34;;;5.41;98.65
36222;BME280;22266;52.340;4.962;2024-02-26T04:10:34;100185.22;;;5.30;98.71
36222;BME280;22266;52.340;4.962;2024-02-26T04:13:07;100186.03;;;5.39;98.72
36222;BME280;22266;52.340;4.962;2024-02-26T04:15:34;100185.19;;;5.38;98.87
36222;BME280;22266;52.340;4.962;2024-02-26T04:18:01;100191.31;;;5.47;98.99
36222;BME280;22266;52.340;4.962;2024-02-26T04:20:29;100185.66;;;5.42;98.71
36222;BME280;22266;52.340;4.962;2024-02-26T04:22:56;100191.56;;;5.29;98.81
36222;BME280;22266;52.340;4.962;2024-02-26T04:25:22;100197.22;;;5.34;99.14
36222;BME280;22266;52.340;4.962;2024-02-26T04:27:49;100189.44;;;5.25;99.12
36222;BME280;22266;52.340;4.962;2024-02-26T04:30:15;100202.97;;;5.23;100.00
36222;BME280;22266;52.340;4.962;2024-02-26T04:32:43;100195.47;;;5.18;99.41
36222;BME280;22266;52.340;4.962;2024-02-26T04:35:10;100208.81;;;5.18;99.25
36222;BME280;22266;52.340;4.962;2024-02-26T04:37:37;100210.03;;;5.08;99.67
36222;BME280;22266;52.340;4.962;2024-02-26T04:40:04;100204.72;;;5.08;100.00
36222;BME280;22266;52.340;4.962;2024-02-26T04:42:31;100206.66;;;5.14;99.75
36222;BME280;22266;52.340;4.962;2024-02-26T04:44:58;100210.50;;;5.19;99.53
36222;BME280;22266;52.340;4.962;2024-02-26T04:47:25;100217.63;;;5.27;99.92
36222;BME280;22266;52.340;4.962;2024-02-26T04:49:51;100228.13;;;5.29;98.65
36222;BME280;22266;52.340;4.962;2024-02-26T04:52:20;100217.13;;;5.24;99.61
36222;BME280;22266;52.340;4.962;2024-02-26T04:54:46;100221.16;;;5.19;98.90
36222;BME280;22266;52.340;4.962;2024-02-26T04:57:13;100216.34;;;5.15;99.52
36222;BME280;22266;52.340;4.962;2024-02-26T04:59:40;100220.84;;;5.14;99.75
36222;BME280;22266;52.340;4.962;2024-02-26T05:02:08;100222.38;;;5.09;99.43
36222;BME280;22266;52.340;4.962;2024-02-26T05:04:36;100236.69;;;5.16;99.70
36222;BME280;22266;52.340;4.962;2024-02-26T05:07:03;100231.00;;;5.19;99.55
36222;BME280;22266;52.340;4.962;2024-02-26T05:09:30;100231.50;;;5.14;99.63
36222;BME280;22266;52.340;4.962;2024-02-26T05:11:57;100234.34;;;5.13;100.00
36222;BME280;22266;52.340;4.962;2024-02-26T05:14:23;100225.00;;;5.17;100.00
36222;BME280;22266;52.340;4.962;2024-02-26T05:16:50;100224.34;;;5.15;99.60
36222;BME280;22266;52.340;4.962;2024-02-26T05:19:16;100227.66;;;5.17;100.00
36222;BME280;22266;52.340;4.962;2024-02-26T05:21:43;100236.16;;;5.20;100.00
36222;BME280;22266;52.340;4.962;2024-02-26T05:24:10;100230.19;;;5.10;100.00
36222;BME280;22266;52.340;4.962;2024-02-26T05:26:37;100240.66;;;5.20;100.00
36222;BME280;22266;52.340;4.962;2024-02-26T05:29:04;100244.31;;;5.27;99.81
36222;BME280;22266;52.340;4.962;2024-02-26T05:31:30;100250.84;;;5.16;100.00
36222;BME280;22266;52.340;4.962;2024-02-26T05:33:57;100249.84;;;5.17;99.44
36222;BME280;22266;52.340;4.962;2024-02-26T05:36:24;100258.06;;;5.08;99.84
36222;BME280;22266;52.340;4.962;2024-02-26T05:38:52;100261.88;;;5.13;100.00
36222;BME280;22266;52.340;4.962;2024-02-26T05:41:18;100263.00;;;5.27;99.76
36222;BME280;22266;52.340;4.962;2024-02-26T05:43:49;100256.69;;;5.20;99.54
36222;BME280;22266;52.340;4.962;2024-02-26T05:46:17;100271.06;;;5.11;100.00
36222;BME280;22266;52.340;4.962;2024-02-26T05:48:46;100281.06;;;5.09;100.00
36222;BME280;22266;52.340;4.962;2024-02-26T05:51:13;100276.03;;;5.14;99.66
36222;BME280;22266;52.340;4.962;2024-02-26T05:53:41;100274.19;;;5.14;99.99
36222;BME280;22266;52.340;4.962;2024-02-26T05:56:07;100281.00;;;5.25;99.54
36222;BME280;22266;52.340;4.962;2024-02-26T05:58:34;100283.13;;;5.30;99.77
36222;BME280;22266;52.340;4.962;2024-02-26T06:01:01;100292.31;;;5.35;99.17
36222;BME280;22266;52.340;4.962;2024-02-26T06:03:27;100287.50;;;5.31;99.85
36222;BME280;22266;52.340;4.962;2024-02-26T06:05:54;100292.19;;;5.20;99.82
36222;BME280;22266;52.340;4.962;2024-02-26T06:08:21;100296.75;;;5.04;100.00
36222;BME280;22266;52.340;4.962;2024-02-26T06:10:48;100307.94;;;4.99;100.00
36222;BME280;22266;52.340;4.962;2024-02-26T06:13:15;100303.25;;;5.01;100.00
36222;BME280;22266;52.340;4.962;2024-02-26T06:15:41;100307.94;;;4.99;100.00
36222;BME280;22266;52.340;4.962;2024-02-26T06:18:08;100309.28;;;4.95;100.00
36222;BME280;22266;52.340;4.962;2024-02-26T06:20:35;100309.09;;;4.96;100.00
36222;BME280;22266;52.340;4.962;2024-02-26T06:23:01;100316.63;;;4.93;100.00
36222;BME280;22266;52.340;4.962;2024-02-26T06:25:28;100311.31;;;4.85;100.00
36222;BME280;22266;52.340;4.962;2024-02-26T06:27:54;100321.97;;;4.85;100.00
36222;BME280;22266;52.340;4.962;2024-02-26T06:30:21;100328.81;;;4.79;100.00
36222;BME280;22266;52.340;4.962;2024-02-26T06:32:48;100337.84;;;4.78;100.00
36222;BME280;22266;52.340;4.962;2024-02-26T06:35:15;100347.50;;;4.71;100.00
36222;BME280;22266;52.340;4.962;2024-02-26T06:37:41;100340.50;;;4.70;100.00
36222;BME280;22266;52.340;4.962;2024-02-26T06:40:08;100340.50;;;4.78;100.00
36222;BME280;22266;52.340;4.962;2024-02-26T06:42:35;100337.13;;;4.84;100.00
36222;BME280;22266;52.340;4.962;2024-02-26T06:45:03;100339.81;;;4.76;100.00
36222;BME280;22266;52.340;4.962;2024-02-26T06:47:30;100355.19;;;4.66;100.00
36222;BME280;22266;52.340;4.962;2024-02-26T06:49:57;100352.66;;;4.72;100.00
36222;BME280;22266;52.340;4.962;2024-02-26T06:52:25;100349.47;;;4.69;100.00
36222;BME280;22266;52.340;4.962;2024-02-26T06:54:52;100357.47;;;4.69;100.00
36222;BME280;22266;52.340;4.962;2024-02-26T06:57:20;100346.16;;;4.75;100.00
36222;BME280;22266;52.340;4.962;2024-02-26T06:59:47;100361.84;;;4.70;100.00
36222;BME280;22266;52.340;4.962;2024-02-26T07:02:14;100367.50;;;4.67;100.00
36222;BME280;22266;52.340;4.962;2024-02-26T07:04:40;100367.81;;;4.72;100.00
36222;BME280;22266;52.340;4.962;2024-02-26T07:07:07;100387.63;;;4.69;100.00
36222;BME280;22266;52.340;4.962;2024-02-26T07:09:35;100394.47;;;4.72;100.00
36222;BME280;22266;52.340;4.962;2024-02-26T07:12:01;100403.31;;;4.72;100.00
36222;BME280;22266;52.340;4.962;2024-02-26T07:14:28;100406.81;;;4.73;100.00
36222;BME280;22266;52.340;4.962;2024-02-26T07:16:55;100395.81;;;4.68;100.00
36222;BME280;22266;52.340;4.962;2024-02-26T07:19:22;100405.47;;;4.69;100.00
36222;BME280;22266;52.340;4.962;2024-02-26T07:21:49;100401.97;;;4.68;100.00
36222;BME280;22266;52.340;4.962;2024-02-26T07:24:16;100412.50;;;4.70;100.00
36222;BME280;22266;52.340;4.962;2024-02-26T07:26:42;100394.66;;;4.79;100.00
36222;BME280;22266;52.340;4.962;2024-02-26T07:29:09;100405.81;;;4.74;100.00
36222;BME280;22266;52.340;4.962;2024-02-26T07:31:36;100419.16;;;4.66;100.00
36222;BME280;22266;52.340;4.962;2024-02-26T07:34:02;100417.81;;;4.62;100.00
36222;BME280;22266;52.340;4.962;2024-02-26T07:36:29;100412.50;;;4.62;100.00
36222;BME280;22266;52.340;4.962;2024-02-26T07:38:56;100425.97;;;4.77;100.00
36222;BME280;22266;52.340;4.962;2024-02-26T07:41:22;100434.97;;;4.76;100.00
36222;BME280;22266;52.340;4.962;2024-02-26T07:43:49;100446.78;;;4.73;100.00
36222;BME280;22266;52.340;4.962;2024-02-26T07:46:15;100437.47;;;4.69;100.00
36222;BME280;22266;52.340;4.962;2024-02-26T07:48:42;100430.47;;;4.68;100.00
36222;BME280;22266;52.340;4.962;2024-02-26T07:51:12;100444.47;;;4.70;100.00
36222;BME280;22266;52.340;4.962;2024-02-26T07:53:40;100449.47;;;4.73;100.00
36222;BME280;22266;52.340;4.962;2024-02-26T07:56:07;100448.63;;;4.72;100.00
36222;BME280;22266;52.340;4.962;2024-02-26T07:58:34;100449.63;;;4.71;100.00
36222;BME280;22266;52.340;4.962;2024-02-26T08:01:01;100455.16;;;4.78;100.00
36222;BME280;22266;52.340;4.962;2024-02-26T08:03:28;100450.66;;;4.79;100.00
36222;BME280;22266;52.340;4.962;2024-02-26T08:05:55;100457.97;;;4.77;100.00
36222;BME280;22266;52.340;4.962;2024-02-26T08:08:22;100456.97;;;4.78;100.00
36222;BME280;22266;52.340;4.962;2024-02-26T08:10:48;100466.28;;;4.74;99.93
36222;BME280;22266;52.340;4.962;2024-02-26T08:13:15;100472.13;;;4.77;100.00
36222;BME280;22266;52.340;4.962;2024-02-26T08:15:41;100483.63;;;4.69;99.62
36222;BME280;22266;52.340;4.962;2024-02-26T08:18:08;100486.66;;;4.75;99.61
36222;BME280;22266;52.340;4.962;2024-02-26T08:20:35;100470.97;;;4.71;99.64
36222;BME280;22266;52.340;4.962;2024-02-26T08:23:01;100480.13;;;4.69;99.18
36222;BME280;22266;52.340;4.962;2024-02-26T08:25:28;100479.97;;;4.70;99.22
36222;BME280;22266;52.340;4.962;2024-02-26T08:27:55;100483.47;;;4.79;99.60
36222;BME280;22266;52.340;4.962;2024-02-26T08:30:21;100501.13;;;4.80;99.83
36222;BME280;22266;52.340;4.962;2024-02-26T08:32:48;100504.81;;;4.79;98.91
36222;BME280;22266;52.340;4.962;2024-02-26T08:35:18;100500.47;;;4.78;99.11
36222;BME280;22266;52.340;4.962;2024-02-26T08:37:46;100489.81;;;4.78;98.77
36222;BME280;22266;52.340;4.962;2024-02-26T08:40:14;100498.66;;;4.79;98.80
36222;BME280;22266;52.340;4.962;2024-02-26T08:42:41;100509.47;;;4.77;98.73
36222;BME280;22266;52.340;4.962;2024-02-26T08:45:08;100509.13;;;4.80;99.05
36222;BME280;22266;52.340;4.962;2024-02-26T08:47:35;100502.47;;;4.84;98.93
36222;BME280;22266;52.340;4.962;2024-02-26T08:50:02;100507.31;;;4.89;98.35
36222;BME280;22266;52.340;4.962;2024-02-26T08:52:28;100510.31;;;4.94;98.75
36222;BME280;22266;52.340;4.962;2024-02-26T08:54:55;100552.13;;;4.77;97.95
36222;BME280;22266;52.340;4.962;2024-02-26T08:57:22;100516.31;;;4.80;98.15
36222;BME280;22266;52.340;4.962;2024-02-26T08:59:48;100529.47;;;4.81;98.37
36222;BME280;22266;52.340;4.962;2024-02-26T09:02:16;100521.13;;;4.84;98.67
36222;BME280;22266;52.340;4.962;2024-02-26T09:04:42;100531.63;;;4.94;97.99
36222;BME280;22266;52.340;4.962;2024-02-26T09:07:09;100525.47;;;4.85;97.88
36222;BME280;22266;52.340;4.962;2024-02-26T09:09:36;100531.78;;;4.76;98.37
36222;BME280;22266;52.340;4.962;2024-02-26T09:12:03;100532.50;;;4.86;98.28
36222;BME280;22266;52.340;4.962;2024-02-26T09:14:30;100537.13;;;4.84;97.68
36222;BME280;22266;52.340;4.962;2024-02-26T09:16:57;100543.50;;;4.91;98.36
36222;BME280;22266;52.340;4.962;2024-02-26T09:19:26;100542.81;;;4.97;97.75
36222;BME280;22266;52.340;4.962;2024-02-26T09:21:54;100560.31;;;4.92;97.76
36222;BME280;22266;52.340;4.962;2024-02-26T09:24:25;100563.50;;;4.95;97.81
36222;BME280;22266;52.340;4.962;2024-02-26T09:26:51;100546.81;;;4.93;97.05
36222;BME280;22266;52.340;4.962;2024-02-26T09:29:18;100547.66;;;4.94;98.21
36222;BME280;22266;52.340;4.962;2024-02-26T09:31:45;100555.66;;;4.94;98.42
36222;BME280;22266;52.340;4.962;2024-02-26T09:34:14;100563.66;;;5.02;98.45
36222;BME280;22266;52.340;4.962;2024-02-26T09:36:40;100563.34;;;5.05;98.27
36222;BME280;22266;52.340;4.962;2024-02-26T09:39:32;100573.69;;;5.08;97.39
36222;BME280;22266;52.340;4.962;2024-02-26T09:42:01;100586.50;;;5.05;97.79
36222;BME280;22266;52.340;4.962;2024-02-26T09:44:31;100595.19;;;5.07;98.09
36222;BME280;22266;52.340;4.962;2024-02-26T09:47:02;100582.84;;;5.14;97.48
36222;BME280;22266;52.340;4.962;2024-02-26T09:49:29;100596.06;;;5.32;98.10
36222;BME280;22266;52.340;4.962;2024-02-26T09:51:57;100592.56;;;5.23;97.20
36222;BME280;22266;52.340;4.962;2024-02-26T09:54:25;100592.38;;;5.16;97.60
36222;BME280;22266;52.340;4.962;2024-02-26T09:56:59;100604.88;;;5.16;97.11
36222;BME280;22266;52.340;4.962;2024-02-26T09:59:34;100592.88;;;5.12;97.10
36222;BME280;22266;52.340;4.962;2024-02-26T10:02:09;100607.38;;;5.26;97.21
36222;BME280;22266;52.340;4.962;2024-02-26T10:04:39;100620.22;;;5.30;96.87
36222;BME280;22266;52.340;4.962;2024-02-26T10:07:13;100616.69;;;5.13;96.64
36222;BME280;22266;52.340;4.962;2024-02-26T10:09:40;100621.19;;;5.05;97.08
36222;BME280;22266;52.340;4.962;2024-02-26T10:12:10;100619.88;;;5.25;97.55
36222;BME280;22266;52.340;4.962;2024-02-26T10:14:37;100627.91;;;5.33;96.93
36222;BME280;22266;52.340;4.962;2024-02-26T10:17:07;100637.25;;;5.37;96.48
36222;BME280;22266;52.340;4.962;2024-02-26T10:19:35;100641.75;;;5.29;96.79
36222;BME280;22266;52.340;4.962;2024-02-26T10:22:05;100641.06;;;5.18;96.25
36222;BME280;22266;52.340;4.962;2024-02-26T10:24:32;100643.41;;;5.38;96.72
36222;BME280;22266;52.340;4.962;2024-02-26T10:27:02;100643.78;;;5.43;96.58
36222;BME280;22266;52.340;4.962;2024-02-26T10:29:29;100651.78;;;5.35;95.54
36222;BME280;22266;52.340;4.962;2024-02-26T10:31:56;100660.09;;;5.24;96.17
36222;BME280;22266;52.340;4.962;2024-02-26T10:34:22;100647.56;;;5.08;95.93
36222;BME280;22266;52.340;4.962;2024-02-26T10:36:49;100663.22;;;5.03;96.33
36222;BME280;22266;52.340;4.962;2024-02-26T10:39:20;100658.59;;;5.21;96.69
36222;BME280;22266;52.340;4.962;2024-02-26T10:41:47;100676.63;;;5.27;95.89
36222;BME280;22266;52.340;4.962;2024-02-26T10:44:14;100668.25;;;5.22;95.37
36222;BME280;22266;52.340;4.962;2024-02-26T10:46:46;100678.91;;;5.14;95.83
36222;BME280;22266;52.340;4.962;2024-02-26T10:49:15;100686.75;;;5.15;96.16
36222;BME280;22266;52.340;4.962;2024-02-26T10:51:54;100681.44;;;5.15;95.45
36222;BME280;22266;52.340;4.962;2024-02-26T10:54:24;100679.06;;;5.12;95.22
36222;BME280;22266;52.340;4.962;2024-02-26T10:56:53;100693.41;;;5.11;96.36
36222;BME280;22266;52.340;4.962;2024-02-26T10:59:22;100688.25;;;5.18;95.72
36222;BME280;22266;52.340;4.962;2024-02-26T11:01:48;100697.06;;;5.10;95.73
36222;BME280;22266;52.340;4.962;2024-02-26T11:04:16;100696.22;;;5.10;95.28
36222;BME280;22266;52.340;4.962;2024-02-26T11:06:47;100713.72;;;5.04;95.41
36222;BME280;22266;52.340;4.962;2024-02-26T11:09:17;100709.06;;;5.06;95.29
36222;BME280;22266;52.340;4.962;2024-02-26T11:11:46;100712.25;;;5.18;95.78
36222;BME280;22266;52.340;4.962;2024-02-26T11:14:14;100734.81;;;5.24;94.86
36222;BME280;22266;52.340;4.962;2024-02-26T11:16:41;100733.00;;;5.32;95.14
36222;BME280;22266;52.340;4.962;2024-02-26T11:19:10;100729.28;;;5.17;94.73
36222;BME280;22266;52.340;4.962;2024-02-26T11:21:38;100740.13;;;5.15;94.79
36222;BME280;22266;52.340;4.962;2024-02-26T11:24:08;100728.63;;;5.15;94.27
36222;BME280;22266;52.340;4.962;2024-02-26T11:26:43;100729.78;;;5.20;95.10
36222;BME280;22266;52.340;4.962;2024-02-26T11:29:14;100725.00;;;5.32;94.96
36222;BME280;22266;52.340;4.962;2024-02-26T11:31:42;100725.34;;;5.37;94.54
36222;BME280;22266;52.340;4.962;2024-02-26T11:34:09;100741.31;;;5.29;94.15
36222;BME280;22266;52.340;4.962;2024-02-26T11:36:37;100743.97;;;5.21;94.51
36222;BME280;22266;52.340;4.962;2024-02-26T11:39:04;100739.84;;;5.35;94.46
36222;BME280;22266;52.340;4.962;2024-02-26T11:41:31;100742.56;;;5.43;94.47
36222;BME280;22266;52.340;4.962;2024-02-26T11:44:00;100740.19;;;5.32;93.96
36222;BME280;22266;52.340;4.962;2024-02-26T11:46:32;100749.00;;;5.24;93.49
36222;BME280;22266;52.340;4.962;2024-02-26T11:49:03;100756.88;;;5.42;93.93
36222;BME280;22266;52.340;4.962;2024-02-26T11:51:50;100759.06;;;5.46;93.98
36222;BME280;22266;52.340;4.962;2024-02-26T11:54:43;100765.38;;;5.37;93.66
36222;BME280;22266;52.340;4.962;2024-02-26T11:59:47;100749.25;;;5.55;93.44
36222;BME280;22266;52.340;4.962;2024-02-26T12:02:46;100757.59;;;5.52;92.56
36222;BME280;22266;52.340;4.962;2024-02-26T12:05:18;100778.44;;;5.49;93.13
36222;BME280;22266;52.340;4.962;2024-02-26T12:07:48;100768.78;;;5.56;93.08
36222;BME280;22266;52.340;4.962;2024-02-26T12:10:36;100770.72;;;5.45;92.66
36222;BME280;22266;52.340;4.962;2024-02-26T12:13:10;100769.41;;;5.50;93.31
36222;BME280;22266;52.340;4.962;2024-02-26T12:18:22;100778.28;;;5.58;93.04
36222;BME280;22266;52.340;4.962;2024-02-26T12:21:02;100771.78;;;5.69;93.29
36222;BME280;22266;52.340;4.962;2024-02-26T12:23:30;100783.63;;;5.66;92.62
36222;BME280;22266;52.340;4.962;2024-02-26T12:26:00;100787.13;;;5.67;92.75
36222;BME280;22266;52.340;4.962;2024-02-26T12:28:30;100787.13;;;5.67;92.53
36222;BME280;22266;52.340;4.962;2024-02-26T12:30:57;100794.50;;;5.65;93.10
36222;BME280;22266;52.340;4.962;2024-02-26T12:33:26;100796.50;;;5.87;95.47
36222;BME280;22266;52.340;4.962;2024-02-26T12:35:54;100803.94;;;6.02;92.27
36222;BME280;22266;52.340;4.962;2024-02-26T12:38:21;100798.22;;;5.88;92.24
36222;BME280;22266;52.340;4.962;2024-02-26T12:40:47;100801.84;;;5.79;92.70
36222;BME280;22266;52.340;4.962;2024-02-26T12:43:15;100804.38;;;5.81;92.15
36222;BME280;22266;52.340;4.962;2024-02-26T12:45:43;100809.88;;;5.87;92.88
36222;BME280;22266;52.340;4.962;2024-02-26T12:48:13;100810.44;;;5.99;93.66
36222;BME280;22266;52.340;4.962;2024-02-26T12:50:44;100806.59;;;6.02;91.94
36222;BME280;22266;52.340;4.962;2024-02-26T12:53:11;100817.44;;;5.92;91.75
36222;BME280;22266;52.340;4.962;2024-02-26T12:55:38;100824.28;;;6.03;92.89
36222;BME280;22266;52.340;4.962;2024-02-26T12:58:07;100837.84;;;6.17;91.96
36222;BME280;22266;52.340;4.962;2024-02-26T13:00:34;100826.16;;;6.35;91.58
36222;BME280;22266;52.340;4.962;2024-02-26T13:03:01;100829.16;;;6.32;90.71
36222;BME280;22266;52.340;4.962;2024-02-26T13:05:29;100845.88;;;6.17;90.63